Time;durP1;ratioP1;P1;durP2;ratioP2;P2;SDS_P1;SDS_P2;PMS_P1;PMS_P2;Temp;Humidity;BMP_temperature;BMP_pressure;BME280_temperature;BME280_humidity;BME280_pressure;Samples;Min_cycle;Max_cycle;Signal;HPM_P1;HPM_P2
2022/08/11 00:01:26;;;;;;;2.88;1.70;;;20.30;93.60;;;;;;5010125;28;20407;-39
2022/08/11 00:03:58;;;;;;;2.13;1.48;;;20.30;93.60;;;;;;5009344;28;20038;-40
2022/08/11 00:06:36;;;;;;;3.60;1.73;;;20.20;93.80;;;;;;5007115;28;20057;-38
2022/08/11 00:09:11;;;;;;;2.70;1.65;;;20.20;94.10;;;;;;5009675;28;20044;-38
2022/08/11 00:11:49;;;;;;;3.30;1.88;;;20.20;94.10;;;;;;5011259;28;20455;-41
2022/08/11 00:14:22;;;;;;;3.60;1.50;;;20.20;94.10;;;;;;5009382;28;20053;-38
2022/08/11 00:17:02;;;;;;;2.70;1.77;;;20.10;94.10;;;;;;5007183;28;20134;-39
2022/08/11 00:19:32;;;;;;;3.10;1.80;;;20.10;94.40;;;;;;5009164;28;20081;-39
2022/08/11 00:21:59;;;;;;;4.43;1.75;;;20.10;94.40;;;;;;5008989;28;20034;-41
2022/08/11 00:24:36;;;;;;;3.00;1.50;;;20.00;94.50;;;;;;5009631;28;20046;-38
2022/08/11 00:27:02;;;;;;;2.83;2.00;;;19.90;94.80;;;;;;5003396;28;20038;-37
2022/08/11 00:29:28;;;;;;;4.18;1.70;;;19.90;94.70;;;;;;4998899;28;20479;-36
2022/08/11 00:31:56;;;;;;;4.28;2.00;;;19.90;94.90;;;;;;4995685;28;20085;-38
2022/08/11 00:34:32;;;;;;;2.38;1.52;;;19.90;95.10;;;;;;5003576;28;20049;-38
2022/08/11 00:37:04;;;;;;;3.63;1.65;;;19.80;95.30;;;;;;4995144;28;20069;-36
2022/08/11 00:39:33;;;;;;;4.20;2.00;;;19.80;95.30;;;;;;4998209;28;20518;-38
2022/08/11 00:42:06;;;;;;;2.85;1.73;;;19.80;95.10;;;;;;4994832;28;20069;-36
2022/08/11 00:44:38;;;;;;;3.60;2.03;;;19.80;95.00;;;;;;5001894;28;20042;-39
2022/08/11 00:47:22;;;;;;;2.85;1.80;;;19.80;95.20;;;;;;4994438;28;20041;-36
2022/08/11 00:50:09;;;;;;;4.97;1.80;;;19.70;95.50;;;;;;4995247;28;20046;-40
2022/08/11 00:52:59;;;;;;;4.13;1.92;;;19.60;96.20;;;;;;4994986;28;20053;-37
2022/08/11 00:55:35;;;;;;;2.67;1.77;;;19.50;95.90;;;;;;5000750;28;20168;-37
2022/08/11 00:58:38;;;;;;;3.88;2.30;;;19.50;96.20;;;;;;4994260;28;20986;-37
2022/08/11 01:01:26;;;;;;;4.80;2.20;;;19.40;96.70;;;;;;4975796;28;20790;-36
2022/08/11 01:04:04;;;;;;;3.85;2.58;;;19.40;96.90;;;;;;4990101;28;20748;-36
2022/08/11 01:07:15;;;;;;;3.85;2.33;;;19.30;96.90;;;;;;4995173;28;20046;-40
2022/08/11 01:10:27;;;;;;;3.45;2.13;;;19.20;97.70;;;;;;4991396;28;21062;-39
2022/08/11 01:13:12;;;;;;;2.80;2.00;;;19.20;98.20;;;;;;4990279;28;20077;-37
2022/08/11 01:15:47;;;;;;;4.90;1.70;;;19.10;97.50;;;;;;4991166;28;20093;-37
2022/08/11 01:18:47;;;;;;;3.85;1.90;;;19.10;98.30;;;;;;4990515;28;20046;-37
2022/08/11 01:21:16;;;;;;;3.92;2.50;;;19.10;98.50;;;;;;4994375;28;20384;-38
2022/08/11 01:23:58;;;;;;;4.45;1.98;;;19.10;97.90;;;;;;4991361;28;20045;-39
2022/08/11 01:26:52;;;;;;;2.63;1.73;;;19.10;98.70;;;;;;4994513;28;20285;-39
2022/08/11 01:29:55;;;;;;;7.82;2.13;;;19.00;98.70;;;;;;4990464;28;20164;-36
2022/08/11 01:32:29;;;;;;;;;;;18.90;99.20;;;;;;4995282;28;20141;-38
2022/08/11 01:35:20;;;;;;;3.38;1.63;;;18.90;99.90;;;;;;4996897;28;19956;-38
2022/08/11 01:38:27;;;;;;;2.85;2.10;;;18.90;98.80;;;;;;4998537;28;20042;-38
2022/08/11 01:41:11;;;;;;;4.10;2.03;;;18.80;99.90;;;;;;4992954;28;20056;-38
2022/08/11 01:47:49;;;;;;;3.42;2.20;;;18.80;99.80;;;;;;4992017;28;20518;-38
2022/08/11 01:50:22;;;;;;;6.10;2.15;;;18.70;99.80;;;;;;4996769;28;20049;-38
2022/08/11 01:52:51;;;;;;;3.63;1.88;;;18.70;99.90;;;;;;4994165;28;20046;-37
2022/08/11 01:55:42;;;;;;;3.25;1.55;;;18.70;99.40;;;;;;4991924;28;20554;-38
2022/08/11 01:58:29;;;;;;;3.35;1.92;;;18.70;99.90;;;;;;4983614;28;20038;-38
2022/08/11 02:01:32;;;;;;;4.05;2.25;;;18.70;99.80;;;;;;4994114;28;20097;-38
2022/08/11 02:04:24;;;;;;;2.47;1.77;;;18.70;99.90;;;;;;5009063;28;20038;-39
2022/08/11 02:07:18;;;;;;;3.70;1.85;;;18.60;99.90;;;;;;4996739;28;20064;-38
2022/08/11 02:13:14;;;;;;;3.92;1.77;;;18.50;99.90;;;;;;4996668;28;20557;-38
2022/08/11 02:15:49;;;;;;;3.00;1.90;;;18.50;99.90;;;;;;4990308;28;20555;-38
2022/08/11 02:18:22;;;;;;;7.13;2.53;;;18.40;99.90;;;;;;4995461;28;20057;-37
2022/08/11 02:24:17;;;;;;;4.20;2.03;;;18.40;99.90;;;;;;4996218;28;20053;-38
2022/08/11 02:26:52;;;;;;;4.18;2.80;;;18.40;99.90;;;;;;4956254;28;20108;-39
2022/08/11 02:29:28;;;;;;;4.82;2.00;;;18.40;99.90;;;;;;5001344;28;20041;-39
2022/08/11 02:34:55;;;;;;;5.10;2.38;;;18.40;99.90;;;;;;4994526;28;20076;-40
2022/08/11 02:37:53;;;;;;;2.70;1.88;;;18.40;99.90;;;;;;4999550;28;20076;-36
2022/08/11 02:40:44;;;;;;;5.68;2.63;;;18.30;99.90;;;;;;4983641;28;20049;-38
2022/08/11 02:43:38;;;;;;;3.33;2.00;;;18.30;99.90;;;;;;5002323;28;20471;-38
2022/08/11 02:46:31;;;;;;;4.50;2.28;;;18.30;99.90;;;;;;4995441;28;20196;-40
2022/08/11 02:52:30;;;;;;;5.05;2.75;;;18.20;99.90;;;;;;4997688;28;20083;-38
2022/08/11 02:55:18;;;;;;;5.13;2.10;;;18.20;99.90;;;;;;4987207;28;20526;-38
2022/08/11 02:57:55;;;;;;;3.65;2.05;;;18.10;99.90;;;;;;4996592;28;20084;-38
2022/08/11 03:00:24;;;;;;;4.65;2.30;;;18.10;99.90;;;;;;5005396;28;20062;-36
2022/08/11 03:03:03;;;;;;;4.53;2.60;;;18.10;99.90;;;;;;4992366;28;20051;-38
2022/08/11 03:05:47;;;;;;;2.90;2.08;;;18.10;99.90;;;;;;4993965;28;20849;-37
2022/08/11 03:08:22;;;;;;;3.58;2.53;;;18.10;99.90;;;;;;4993555;28;20046;-38
2022/08/11 03:16:43;;;;;;;3.78;1.80;;;18.10;99.90;;;;;;5003119;28;20128;-38
2022/08/11 03:16:45;;;;;;;3.60;2.20;;;18.00;99.90;;;;;;4997513;28;20491;-37
2022/08/11 03:19:18;;;;;;;4.13;1.92;;;18.00;99.90;;;;;;4996122;28;20037;-38
2022/08/11 03:22:24;;;;;;;3.38;2.15;;;18.00;99.90;;;;;;4993284;28;20040;-37
2022/08/11 03:25:02;;;;;;;4.22;2.60;;;17.90;99.90;;;;;;4987078;28;20132;-39
2022/08/11 03:27:36;;;;;;;4.60;2.53;;;17.90;99.90;;;;;;4997678;28;20550;-36
2022/08/11 03:30:31;;;;;;;4.53;2.28;;;17.90;99.90;;;;;;4976570;28;20050;-38
2022/08/11 03:36:36;;;;;;;3.88;2.72;;;17.90;99.90;;;;;;4994225;28;20050;-38
2022/08/11 03:39:07;;;;;;;3.55;2.33;;;17.80;99.90;;;;;;4995765;28;20402;-38
2022/08/11 03:42:08;;;;;;;4.10;2.50;;;17.80;99.90;;;;;;5000647;28;20053;-38
2022/08/11 03:45:04;;;;;;;3.55;2.03;;;17.80;99.90;;;;;;4997787;28;20060;-38
2022/08/11 03:47:51;;;;;;;3.90;2.38;;;17.70;99.90;;;;;;4977244;28;20120;-38
2022/08/11 03:50:47;;;;;;;5.20;2.80;;;17.70;99.90;;;;;;4995504;28;20044;-36
2022/08/11 03:53:19;;;;;;;3.92;2.35;;;17.70;99.90;;;;;;4992009;28;20048;-38
2022/08/11 03:55:46;;;;;;;;;;;17.70;99.90;;;;;;4998344;28;20061;-37
2022/08/11 03:58:32;;;;;;;4.95;2.40;;;17.60;99.90;;;;;;4978241;28;19921;-38
2022/08/11 04:01:33;;;;;;;4.63;3.25;;;17.60;99.90;;;;;;4993596;28;20133;-39
2022/08/11 04:04:02;;;;;;;4.70;2.67;;;17.60;99.90;;;;;;5004278;28;20042;-37
2022/08/11 04:06:53;;;;;;;3.55;2.63;;;17.60;99.90;;;;;;4993616;28;20499;-39
2022/08/11 04:09:51;;;;;;;4.15;2.50;;;17.70;99.90;;;;;;4990863;28;20042;-38
2022/08/11 04:12:28;;;;;;;4.80;3.10;;;17.70;99.90;;;;;;4999247;28;20046;-37
2022/08/11 04:18:26;;;;;;;4.07;2.50;;;17.60;99.90;;;;;;4943367;28;20054;-38
2022/08/11 04:20:58;;;;;;;5.32;2.67;;;17.60;99.90;;;;;;4995654;28;20048;-38
2022/08/11 04:23:49;;;;;;;6.75;2.58;;;17.60;99.90;;;;;;5004660;28;20434;-38
2022/08/11 04:26:45;;;;;;;4.97;2.30;;;17.60;99.90;;;;;;5004294;28;20119;-39
2022/08/11 04:29:23;;;;;;;5.85;2.65;;;17.60;99.90;;;;;;4995476;28;20402;-38
2022/08/11 04:31:49;;;;;;;5.40;2.75;;;17.60;99.90;;;;;;4992250;28;20779;-37
2022/08/11 04:34:52;;;;;;;4.78;2.67;;;17.60;99.90;;;;;;5003647;28;20077;-38
2022/08/11 04:38:07;;;;;;;5.75;3.30;;;17.60;99.90;;;;;;4992342;28;20122;-36
2022/08/11 04:41:29;;;;;;;5.05;3.60;;;17.60;99.90;;;;;;4995005;28;20512;-37
2022/08/11 04:44:07;;;;;;;5.93;2.88;;;17.60;99.90;;;;;;4936823;28;20440;-38
2022/08/11 04:46:54;;;;;;;3.65;2.55;;;17.60;99.90;;;;;;4991055;28;20811;-38
2022/08/11 05:02:25;;;;;;;10.13;2.75;;;17.60;99.90;;;;;;4985496;28;20050;-38
2022/08/11 05:08:01;;;;;;;4.90;2.40;;;17.80;99.90;;;;;;4990882;28;20053;-37
2022/08/11 05:10:40;;;;;;;6.45;2.63;;;17.80;99.90;;;;;;4995221;28;20510;-37
2022/08/11 05:36:07;;;;;;;4.63;3.15;;;18.10;99.90;;;;;;5000453;28;20993;-35
2022/08/11 05:58:04;;;;;;;5.13;2.60;;;18.80;99.90;;;;;;4995940;28;20525;-36
2022/08/11 06:00:39;;;;;;;3.95;2.42;;;18.90;99.90;;;;;;4993388;28;20058;-37
2022/08/11 06:03:09;;;;;;;7.00;2.92;;;19.00;99.90;;;;;;4974511;28;20264;-38
2022/08/11 06:05:42;;;;;;;5.80;2.60;;;19.00;99.90;;;;;;4993115;28;20052;-38
2022/08/11 06:08:09;;;;;;;7.22;2.72;;;19.10;99.90;;;;;;5000757;28;20080;-36
2022/08/11 06:10:39;;;;;;;4.55;2.88;;;19.20;99.90;;;;;;4994319;28;20048;-38
2022/08/11 06:13:06;;;;;;;5.50;3.40;;;19.30;99.90;;;;;;4985461;28;20839;-33
2022/08/11 06:15:42;;;;;;;4.47;3.30;;;19.40;99.90;;;;;;4977769;28;20518;-34
2022/08/11 06:18:10;;;;;;;4.75;3.10;;;19.40;99.90;;;;;;4973833;28;20049;-34
2022/08/11 06:20:49;;;;;;;3.67;2.55;;;19.50;99.90;;;;;;4991973;28;20038;-36
2022/08/11 06:23:21;;;;;;;3.08;2.10;;;19.60;99.90;;;;;;4992731;28;20082;-34
2022/08/11 06:25:49;;;;;;;5.45;2.83;;;19.60;99.60;;;;;;4994821;28;20050;-35
2022/08/11 06:28:18;;;;;;;4.45;2.83;;;19.70;99.40;;;;;;4993508;28;20132;-34
2022/08/11 06:30:45;;;;;;;4.70;2.75;;;19.70;99.30;;;;;;4999233;28;20038;-34
2022/08/11 06:33:29;;;;;;;4.35;2.70;;;19.80;99.00;;;;;;4996084;28;20041;-35
2022/08/11 06:36:09;;;;;;;6.32;2.70;;;19.90;98.90;;;;;;5009672;28;20037;-35
2022/08/11 06:39:00;;;;;;;4.13;2.53;;;19.90;98.40;;;;;;5004749;28;20395;-35
2022/08/11 06:41:43;;;;;;;3.75;2.38;;;20.00;98.20;;;;;;4997365;28;20052;-35
2022/08/11 06:44:12;;;;;;;4.68;2.75;;;20.10;97.90;;;;;;4994284;28;20084;-34
2022/08/11 06:47:06;;;;;;;4.72;2.50;;;20.20;97.50;;;;;;5005681;28;20072;-36
2022/08/11 06:52:34;;;;;;;3.78;2.30;;;20.30;96.80;;;;;;5010535;28;20120;-34
2022/08/11 06:55:07;;;;;;;5.05;2.53;;;20.40;96.40;;;;;;5014003;28;20060;-35
2022/08/11 07:00:29;;;;;;;3.63;2.40;;;20.60;95.80;;;;;;5009843;28;20577;-34
2022/08/11 07:02:59;;;;;;;5.63;2.95;;;20.60;95.50;;;;;;5010614;28;20507;-35
2022/08/11 07:05:44;;;;;;;5.65;3.00;;;20.70;95.30;;;;;;5001056;28;20046;-34
2022/08/11 07:16:52;;;;;;;4.25;2.60;;;21.10;94.00;;;;;;5005551;28;20046;-34
2022/08/11 07:30:41;;;;;;;4.20;1.85;;;21.60;92.70;;;;;;5006099;28;20060;-38
2022/08/11 07:33:09;;;;;;;4.97;2.20;;;21.70;92.60;;;;;;5010552;28;20034;-39
2022/08/11 07:35:42;;;;;;;4.72;1.70;;;21.80;92.20;;;;;;5010901;28;20034;-39
2022/08/11 07:38:15;;;;;;;6.82;2.22;;;21.90;92.00;;;;;;4988737;28;20037;-36
2022/08/11 07:40:42;;;;;;;7.25;1.70;;;22.10;91.80;;;;;;5008297;28;20069;-38
2022/08/11 07:43:11;;;;;;;2.55;1.50;;;22.10;91.40;;;;;;5013000;28;20041;-36
2022/08/11 07:54:06;;;;;;;2.17;1.60;;;22.50;87.80;;;;;;5011433;28;20104;-35
2022/08/11 07:56:36;;;;;;;4.03;1.25;;;22.70;87.40;;;;;;5010195;28;20042;-34
2022/08/11 08:18:24;;;;;;;2.33;1.40;;;23.80;80.40;;;;;;5007948;28;20038;-34
2022/08/11 08:20:50;;;;;;;4.43;1.00;;;23.90;80.10;;;;;;5009714;28;20029;-34
2022/08/11 08:23:31;;;;;;;3.13;1.17;;;24.00;80.10;;;;;;5005815;28;20063;-34
2022/08/11 08:26:00;;;;;;;2.33;1.10;;;24.10;79.80;;;;;;5010635;28;20125;-38
2022/08/11 08:28:27;;;;;;;2.42;0.80;;;24.30;79.60;;;;;;5008907;28;20531;-33
2022/08/11 08:30:55;;;;;;;3.83;1.05;;;24.40;78.70;;;;;;5007122;28;20038;-36
2022/08/11 08:33:24;;;;;;;1.92;0.98;;;24.50;77.90;;;;;;5005431;28;20660;-34
2022/08/11 08:36:10;;;;;;;3.10;0.80;;;24.60;77.00;;;;;;5007742;28;20049;-34
2022/08/11 08:38:48;;;;;;;3.20;1.10;;;24.70;76.00;;;;;;5006660;28;20084;-37
2022/08/11 08:41:21;;;;;;;2.90;1.10;;;24.80;74.70;;;;;;5008078;28;20073;-34
2022/08/11 08:43:50;;;;;;;3.78;0.90;;;25.00;74.20;;;;;;5002570;28;20367;-34
2022/08/11 08:46:20;;;;;;;2.40;0.95;;;25.10;73.70;;;;;;5007155;28;20081;-34
2022/08/11 08:48:48;;;;;;;4.22;0.80;;;25.20;73.30;;;;;;5008576;28;20125;-34
2022/08/11 08:51:33;;;;;;;3.20;0.85;;;25.30;73.40;;;;;;5008524;28;20046;-34
2022/08/11 08:54:05;;;;;;;1.33;0.80;;;25.40;70.80;;;;;;5007723;28;20050;-36
2022/08/11 08:56:35;;;;;;;1.95;1.05;;;25.60;69.40;;;;;;5011567;28;20053;-35
2022/08/11 08:59:03;;;;;;;5.65;1.08;;;25.70;68.40;;;;;;4992002;28;20113;-37
2022/08/11 09:01:40;;;;;;;1.90;0.95;;;25.80;65.50;;;;;;5009264;28;20152;-35
2022/08/11 09:04:09;;;;;;;1.52;0.98;;;25.90;64.90;;;;;;5009883;28;20034;-36
2022/08/11 09:06:41;;;;;;;3.65;1.20;;;25.90;64.20;;;;;;4988945;28;20513;-35
2022/08/11 09:09:08;;;;;;;5.22;0.82;;;26.10;62.20;;;;;;5006025;28;20038;-37
2022/08/11 09:12:09;;;;;;;1.38;0.68;;;26.20;61.50;;;;;;4991800;28;20140;-36
2022/08/11 09:15:02;;;;;;;3.58;0.80;;;26.30;60.10;;;;;;5003626;28;20049;-36
2022/08/11 09:17:38;;;;;;;3.20;0.70;;;26.40;57.30;;;;;;5006343;28;20037;-37
2022/08/11 09:20:25;;;;;;;3.13;0.70;;;26.60;55.60;;;;;;5008965;28;20542;-37
2022/08/11 09:28:28;;;;;;;3.63;0.70;;;26.90;52.20;;;;;;5006489;28;20052;-36
2022/08/11 09:30:55;;;;;;;3.28;0.88;;;27.00;51.40;;;;;;5008168;28;20511;-37
2022/08/11 09:33:23;;;;;;;1.83;0.80;;;27.10;50.50;;;;;;5011385;28;20096;-36
2022/08/11 09:35:51;;;;;;;2.90;0.85;;;27.20;49.80;;;;;;5007901;28;20108;-36
2022/08/11 09:41:08;;;;;;;1.85;0.68;;;27.40;48.00;;;;;;5008173;28;20046;-35
2022/08/11 09:46:30;;;;;;;3.63;0.77;;;27.70;46.50;;;;;;5008537;28;20061;-35
2022/08/11 09:48:59;;;;;;;1.85;0.70;;;27.80;45.70;;;;;;5009311;28;20087;-36
2022/08/11 09:51:30;;;;;;;1.77;0.70;;;27.90;44.70;;;;;;5005876;28;20096;-36
2022/08/11 09:53:59;;;;;;;3.20;0.88;;;28.00;44.10;;;;;;5005782;28;20516;-35
2022/08/11 09:59:10;;;;;;;1.77;0.70;;;28.20;42.50;;;;;;5009007;28;20491;-35
2022/08/11 10:01:49;;;;;;;3.15;0.80;;;28.30;41.80;;;;;;5009266;28;20044;-35
2022/08/11 10:04:24;;;;;;;1.52;0.80;;;28.40;40.70;;;;;;5008433;28;20415;-35
2022/08/11 10:07:01;;;;;;;2.92;0.70;;;28.50;40.20;;;;;;5008242;28;20487;-35
2022/08/11 10:09:47;;;;;;;2.13;0.80;;;28.60;40.60;;;;;;5003798;28;20419;-36
2022/08/11 10:12:26;;;;;;;3.75;0.82;;;28.70;40.30;;;;;;5000473;28;20033;-34
2022/08/11 10:20:34;;;;;;;1.88;1.10;;;29.00;40.40;;;;;;4991774;28;20878;-44
2022/08/11 10:28:35;;;;;;;2.25;1.02;;;29.20;39.40;;;;;;5006053;28;20074;-44
2022/08/11 10:34:04;;;;;;;3.63;1.13;;;29.30;38.70;;;;;;5002667;28;20054;-44
2022/08/11 10:36:33;;;;;;;3.97;1.17;;;29.40;38.20;;;;;;5006510;28;20133;-43
2022/08/11 10:39:01;;;;;;;1.85;0.90;;;29.40;38.00;;;;;;5005563;28;20049;-44
2022/08/11 10:44:13;;;;;;;1.83;0.80;;;29.40;37.10;;;;;;5007004;28;20069;-41
2022/08/11 10:49:26;;;;;;;6.68;1.15;;;29.50;37.10;;;;;;5005608;28;20050;-35
2022/08/11 11:00:14;;;;;;;1.52;0.90;;;29.80;37.10;;;;;;5004600;28;20054;-35
2022/08/11 11:02:44;;;;;;;3.10;0.90;;;29.90;36.70;;;;;;5003569;28;20068;-35
2022/08/11 11:05:28;;;;;;;1.80;0.90;;;30.00;36.70;;;;;;5004139;28;20049;-36
2022/08/11 11:10:58;;;;;;;2.05;0.75;;;30.20;35.90;;;;;;5000950;28;20045;-42
2022/08/11 11:18:59;;;;;;;2.80;0.70;;;30.40;35.20;;;;;;5006676;28;20049;-40
2022/08/11 11:21:25;;;;;;;2.35;0.85;;;30.40;34.90;;;;;;5007350;28;20188;-44
2022/08/11 11:24:03;;;;;;;1.55;0.73;;;30.60;35.00;;;;;;5009040;28;20037;-36
2022/08/11 11:26:54;;;;;;;3.05;1.20;;;30.60;34.40;;;;;;5010875;28;20100;-46
2022/08/11 11:29:32;;;;;;;1.92;0.90;;;30.70;34.20;;;;;;4994776;28;20042;-43
2022/08/11 11:32:23;;;;;;;2.45;0.85;;;30.70;34.20;;;;;;4991575;28;20050;-46
2022/08/11 11:35:01;;;;;;;2.45;1.00;;;30.70;33.60;;;;;;5007540;28;20550;-45
2022/08/11 11:37:32;;;;;;;1.85;0.77;;;30.90;33.90;;;;;;5005822;28;20050;-39
2022/08/11 11:39:59;;;;;;;1.58;0.80;;;30.90;34.10;;;;;;5009187;28;20067;-46
2022/08/11 11:42:25;;;;;;;1.92;0.80;;;31.00;34.40;;;;;;5006870;28;20147;-45
2022/08/11 11:44:51;;;;;;;3.00;0.93;;;31.00;34.00;;;;;;5005286;28;20045;-45
2022/08/11 11:47:21;;;;;;;1.45;0.73;;;31.10;33.90;;;;;;5008054;28;20052;-45
2022/08/11 11:49:48;;;;;;;2.28;0.80;;;31.10;34.10;;;;;;5009126;28;20073;-43
2022/08/11 11:52:19;;;;;;;3.70;0.65;;;31.20;33.40;;;;;;5010478;28;20034;-45
2022/08/11 11:54:49;;;;;;;1.80;0.70;;;31.20;33.20;;;;;;5005775;28;20458;-41
2022/08/11 12:02:49;;;;;;;2.25;0.70;;;31.50;33.20;;;;;;5010063;28;20048;-40
2022/08/11 12:05:15;;;;;;;1.85;0.90;;;31.60;32.90;;;;;;5008681;28;20049;-40
2022/08/11 12:10:26;;;;;;;3.55;0.88;;;31.70;32.20;;;;;;5005000;28;20042;-40
2022/08/11 12:15:39;;;;;;;2.97;0.75;;;31.90;32.00;;;;;;5006357;28;20129;-34
2022/08/11 12:18:05;;;;;;;1.00;0.60;;;32.00;32.10;;;;;;4985520;28;20518;-37
2022/08/11 12:20:32;;;;;;;1.40;0.85;;;32.10;32.20;;;;;;5006930;28;20038;-37
2022/08/11 12:28:28;;;;;;;2.50;0.65;;;32.30;32.00;;;;;;5008823;28;20167;-38
2022/08/11 12:30:55;;;;;;;3.72;0.80;;;32.30;31.20;;;;;;4992697;28;20038;-43
2022/08/11 12:33:21;;;;;;;1.27;0.60;;;32.30;30.40;;;;;;5007963;28;20092;-39
2022/08/11 12:35:54;;;;;;;2.40;0.65;;;32.40;30.80;;;;;;5008216;28;20052;-41
2022/08/11 12:38:22;;;;;;;1.63;0.60;;;32.50;30.50;;;;;;5010378;28;20060;-41
2022/08/11 12:46:22;;;;;;;1.73;0.70;;;32.80;30.20;;;;;;5007429;28;20503;-37
2022/08/11 12:52:17;;;;;;;0.87;0.60;;;33.00;29.50;;;;;;5008136;28;20128;-39
2022/08/11 12:54:45;;;;;;;1.35;0.65;;;33.00;29.60;;;;;;4990692;28;20113;-39
2022/08/11 13:05:35;;;;;;;2.70;0.70;;;33.40;28.80;;;;;;5008760;28;20129;-43
2022/08/11 13:08:02;;;;;;;2.97;0.90;;;33.60;29.10;;;;;;5005125;28;20042;-36
2022/08/11 13:13:16;;;;;;;4.85;0.80;;;33.80;28.90;;;;;;5003386;28;20468;-41
2022/08/11 13:15:44;;;;;;;2.90;0.60;;;33.80;28.60;;;;;;5009545;28;20119;-41
2022/08/11 13:18:14;;;;;;;2.13;0.80;;;33.90;28.70;;;;;;5007803;28;20034;-40
2022/08/11 13:20:40;;;;;;;2.95;0.93;;;34.00;28.40;;;;;;5005086;28;20046;-39
2022/08/11 13:23:06;;;;;;;0.95;0.65;;;34.10;28.40;;;;;;5001949;28;20408;-40
2022/08/11 13:25:32;;;;;;;1.92;1.08;;;34.30;28.70;;;;;;5008414;28;20049;-36
2022/08/11 13:27:59;;;;;;;2.35;0.70;;;34.50;28.20;;;;;;4990903;28;20080;-33
2022/08/11 13:33:16;;;;;;;2.67;1.10;;;34.80;27.00;;;;;;5003982;28;20107;-35
2022/08/11 13:35:44;;;;;;;3.28;1.10;;;35.10;26.70;;;;;;5006675;28;20038;-35
2022/08/11 13:38:12;;;;;;;1.27;1.17;;;35.30;26.20;;;;;;5005100;28;20038;-36
2022/08/11 13:40:39;;;;;;;1.30;1.10;;;35.60;25.90;;;;;;5010122;28;20458;-36
2022/08/11 13:43:05;;;;;;;1.48;1.33;;;35.90;25.50;;;;;;5008192;28;20038;-36
2022/08/11 13:45:34;;;;;;;1.25;1.15;;;36.40;25.00;;;;;;5005468;28;20149;-35
2022/08/11 13:48:02;;;;;;;1.90;1.30;;;36.90;24.70;;;;;;5007644;28;20121;-36
2022/08/11 13:53:15;;;;;;;2.60;0.88;;;37.70;23.60;;;;;;5007372;28;20050;-35
2022/08/11 13:55:43;;;;;;;1.45;0.93;;;38.20;23.40;;;;;;5008368;28;20057;-36
2022/08/11 13:58:12;;;;;;;1.52;0.88;;;38.50;22.80;;;;;;5008923;28;20037;-39
2022/08/11 14:00:40;;;;;;;1.08;0.68;;;38.80;22.70;;;;;;5007486;28;20050;-41
2022/08/11 14:03:11;;;;;;;2.33;0.80;;;39.00;22.40;;;;;;5003416;28;20045;-39
2022/08/11 14:05:39;;;;;;;1.85;0.75;;;39.20;22.90;;;;;;5006912;28;20038;-42
2022/08/11 14:08:13;;;;;;;1.90;0.90;;;39.40;22.70;;;;;;5004964;28;20034;-39
2022/08/11 14:10:39;;;;;;;2.65;0.70;;;39.60;22.50;;;;;;5003934;28;20503;-40
2022/08/11 14:16:00;;;;;;;;;;;40.20;22.20;;;;;;5005980;28;20144;-42
2022/08/11 14:18:29;;;;;;;3.85;0.85;;;40.20;22.20;;;;;;5007274;28;19983;-35
2022/08/11 14:23:46;;;;;;;1.55;0.95;;;40.60;21.70;;;;;;5003871;28;20084;-34
2022/08/11 14:26:25;;;;;;;2.05;1.27;;;40.80;21.30;;;;;;5008767;28;20116;-35
2022/08/11 14:29:11;;;;;;;1.95;1.08;;;41.00;21.50;;;;;;5006461;28;20120;-34
2022/08/11 14:31:44;;;;;;;3.97;1.15;;;41.20;20.60;;;;;;5009017;28;20041;-34
2022/08/11 14:34:13;;;;;;;2.95;0.90;;;41.30;20.40;;;;;;5008336;28;20527;-34
2022/08/11 14:36:54;;;;;;;1.77;1.00;;;41.60;20.50;;;;;;5006674;28;20046;-36
2022/08/11 14:39:28;;;;;;;2.05;0.90;;;41.90;20.40;;;;;;5005670;28;20034;-34
2022/08/11 14:47:34;;;;;;;1.60;1.50;;;42.60;19.90;;;;;;5009104;28;20057;-36
2022/08/11 14:50:01;;;;;;;1.38;1.27;;;42.50;19.90;;;;;;5006774;28;20046;-35
2022/08/11 14:52:29;;;;;;;2.83;1.13;;;42.60;20.00;;;;;;5008775;28;20306;-36
2022/08/11 14:57:41;;;;;;;6.95;1.00;;;43.10;19.20;;;;;;5005508;28;20530;-35
2022/08/11 15:00:11;;;;;;;1.70;1.20;;;43.20;19.10;;;;;;5005417;28;20398;-35
2022/08/11 15:05:24;;;;;;;1.67;1.15;;;43.20;19.20;;;;;;5006331;28;20069;-46
2022/08/11 15:07:52;;;;;;;4.13;1.40;;;43.40;18.90;;;;;;5006846;28;20044;-47
2022/08/11 15:10:19;;;;;;;1.50;1.00;;;43.50;18.70;;;;;;5007920;28;20527;-45
2022/08/11 15:12:45;;;;;;;3.50;1.13;;;43.70;18.60;;;;;;5002982;28;20092;-44
2022/08/11 15:17:59;;;;;;;1.90;0.90;;;44.20;18.50;;;;;;5009398;28;20469;-46
2022/08/11 15:26:07;;;;;;;1.75;1.10;;;44.40;18.00;;;;;;5005745;28;20053;-49
2022/08/11 15:45:52;;;;;;;2.95;1.38;;;45.30;16.70;;;;;;5005883;28;20491;-44
2022/08/11 15:48:27;;;;;;;4.70;1.70;;;45.00;17.00;;;;;;5009155;28;20034;-45
2022/08/11 15:50:56;;;;;;;1.67;1.27;;;44.90;17.60;;;;;;5007188;28;20069;-46
2022/08/11 15:53:33;;;;;;;1.95;1.80;;;45.20;17.30;;;;;;5008486;28;20046;-42
2022/08/11 15:56:01;;;;;;;2.08;1.73;;;45.40;16.80;;;;;;5009383;28;20092;-41
2022/08/11 16:04:10;;;;;;;4.07;2.53;;;45.60;16.40;;;;;;5004783;28;20049;-35
2022/08/11 16:07:00;;;;;;;4.55;2.50;;;45.80;17.00;;;;;;5004646;28;20041;-37
2022/08/11 16:09:51;;;;;;;4.55;3.00;;;46.00;16.70;;;;;;4995151;28;20054;-34
2022/08/11 16:12:24;;;;;;;;;;;45.50;16.50;;;;;;5004911;28;20048;-34
2022/08/11 16:17:43;;;;;;;3.28;2.97;;;45.40;17.00;;;;;;5006116;28;20077;-36
2022/08/11 16:20:11;;;;;;;3.78;3.05;;;45.30;16.90;;;;;;4988380;28;20117;-39
2022/08/11 16:22:43;;;;;;;2.80;2.60;;;44.80;17.20;;;;;;5010006;28;20037;-35
2022/08/11 16:25:11;;;;;;;4.55;1.85;;;43.90;17.80;;;;;;5008924;28;20065;-35
2022/08/11 16:27:48;;;;;;;2.58;1.88;;;43.40;18.10;;;;;;5005806;28;20077;-35
2022/08/11 16:30:14;;;;;;;5.97;1.88;;;43.30;17.80;;;;;;5005688;28;20038;-34
2022/08/11 16:32:44;;;;;;;4.65;1.95;;;43.60;17.50;;;;;;5008316;28;20037;-34
2022/08/11 16:40:48;;;;;;;2.33;2.13;;;44.20;17.40;;;;;;5006252;28;20111;-34
2022/08/11 16:48:51;;;;;;;2.45;2.05;;;44.80;17.20;;;;;;5004751;28;20053;-35
2022/08/11 16:51:19;;;;;;;2.17;1.50;;;44.90;17.40;;;;;;5006540;28;20918;-34
2022/08/11 16:53:46;;;;;;;2.65;2.00;;;45.00;17.40;;;;;;5006039;28;20096;-36
2022/08/11 16:56:18;;;;;;;3.58;2.13;;;45.30;17.20;;;;;;5004656;28;20042;-37
2022/08/11 17:01:35;;;;;;;2.33;1.50;;;45.50;17.00;;;;;;5008663;28;20499;-34
2022/08/11 17:13:08;;;;;;;5.28;1.70;;;45.00;17.30;;;;;;4999160;28;20136;-38
2022/08/11 17:16:07;;;;;;;1.93;1.40;;;45.00;17.70;;;;;;5005113;28;20072;-34
2022/08/11 17:18:44;;;;;;;1.67;1.58;;;44.80;17.50;;;;;;5004573;28;20046;-35
2022/08/11 17:21:18;;;;;;;1.40;1.30;;;44.80;17.30;;;;;;5007668;28;20553;-36
2022/08/11 17:23:49;;;;;;;1.67;1.58;;;45.00;17.20;;;;;;5006055;28;20042;-35
2022/08/11 17:26:19;;;;;;;4.10;1.65;;;45.00;17.20;;;;;;4987078;28;20053;-34
2022/08/11 17:28:50;;;;;;;1.70;1.60;;;45.00;17.00;;;;;;5005324;28;20037;-35
2022/08/11 17:36:51;;;;;;;1.63;1.23;;;44.30;17.70;;;;;;5002326;28;20077;-35
2022/08/11 17:39:18;;;;;;;3.40;1.77;;;44.20;17.90;;;;;;5006643;28;20038;-37
2022/08/11 17:50:02;;;;;;;5.70;1.60;;;42.70;20.10;;;;;;5005902;28;20042;-38
2022/08/11 18:00:44;;;;;;;3.50;1.70;;;42.00;20.00;;;;;;5004723;28;20072;-35
2022/08/11 18:03:31;;;;;;;4.07;2.13;;;41.50;20.20;;;;;;5005802;28;20034;-34
2022/08/11 18:06:00;;;;;;;4.32;1.98;;;40.90;21.10;;;;;;5004941;28;20487;-35
